Thorco Royal — VRIP2 — position and weather

sailwx.info

Track history (hours):
 
Tides and Currents Weather Stations Pressure Air Temp Water Temp Dewpoint Dewpoint Depression Visibility Wind Speed Wind Dir Waves Ship Positions

Thorco Royal

Last reported at 2017-Aug-26 07:39 UTC. Time now 2017-Sep-19 17:19 UTC.
Position S 40°44' E 146°03'.
Warning: this ship's position is 24 days out of date.

Length 162 m; draft 6.4 m.

Type: Ship. MMSI: 477902400.

Date/timePositionNaut miles runAvg speedWind from/ knotsBaromVisibWave heightAir tempDewpointWater temp
2017-Aug-26 07:39S 40°44' E 146°03'211.8
2017-Aug-26 07:29S 40°45' E 146°05'612.0
2017-Aug-26 06:59S 40°48' E 146°12'611.9
2017-Aug-26 06:30S 40°51' E 146°18'611.8
2017-Aug-26 06:00S 40°54' E 146°25'611.6
2017-Aug-26 05:30S 40°55' E 146°33'510.3
2017-Aug-26 05:00S 40°57' E 146°39'1 1.1
2017-Aug-26 04:30S 40°56' E 146°39'1 1.1
2017-Aug-26 04:00S 40°56' E 146°38'1 1.7
2017-Aug-26 03:30S 40°56' E 146°37'1 1.6
2017-Aug-26 03:01S 40°57' E 146°36'1 1.1
2017-Aug-26 02:30S 40°57' E 146°36'1 1.9
2017-Aug-26 02:00S 40°56' E 146°35'1 1.5
2017-Aug-26 01:30S 40°56' E 146°36'0 0.4
2017-Aug-26 01:00S 40°57' E 146°36'1 1.2
2017-Aug-26 00:31S 40°56' E 146°36'1 2.1
2017-Aug-26 00:00S 40°55' E 146°37'0 0.6
2017-Aug-25 23:31S 40°55' E 146°37'1 2.1
2017-Aug-25 23:01S 40°56' E 146°37'0 0.4
2017-Aug-25 22:30S 40°56' E 146°37'0 0.2
2017-Aug-25 22:00S 40°56' E 146°37'1 1.8
2017-Aug-25 21:30S 40°57' E 146°37'1 1.8
2017-Aug-25 21:00S 40°57' E 146°36'1 1.6
2017-Aug-25 20:30S 40°58' E 146°35'0 0.3
2017-Aug-25 20:01S 40°58' E 146°35'1 1.1
2017-Aug-25 19:30S 40°58' E 146°35'1 1.3
2017-Aug-25 19:00S 40°57' E 146°35'1 1.1
2017-Aug-25 18:30S 40°57' E 146°35'0 0.2
2017-Aug-25 18:00S 40°56' E 146°35'0 0.2
2017-Aug-25 17:30S 40°56' E 146°35'0 0.5
2017-Aug-25 17:01S 40°56' E 146°35'0 0.6
2017-Aug-25 16:31S 40°56' E 146°35'0 0.5
2017-Aug-25 16:00S 40°56' E 146°36'0 0.3
2017-Aug-25 15:30S 40°56' E 146°36'0 0.5
2017-Aug-25 15:00S 40°56' E 146°36'1 1.1
2017-Aug-25 14:01S 40°56' E 146°34'0 0.3
2017-Aug-25 13:30S 40°56' E 146°34'1 1.0
2017-Aug-25 13:00S 40°57' E 146°34'0 0.2
2017-Aug-25 12:30S 40°57' E 146°34'0 0.6
2017-Aug-25 12:01S 40°57' E 146°34'1 1.3
2017-Aug-25 11:30S 40°57' E 146°33'0 0.9
2017-Aug-25 11:00S 40°57' E 146°33'1 1.6
2017-Aug-25 10:30S 40°56' E 146°32'1 1.1
2017-Aug-25 10:00S 40°56' E 146°32'1 2.1
2017-Aug-25 09:30S 40°57' E 146°30'2 3.7
2017-Aug-25 09:00S 40°56' E 146°33'4 6.7
2017-Aug-25 08:29S 40°55' E 146°37'3 6.8
2017-Aug-25 08:00S 40°54' E 146°41'3 6.8
2017-Aug-25 07:30S 40°53' E 146°45'3 7.0
2017-Aug-25 07:00S 40°52' E 146°50'4 7.0
2017-Aug-25 06:30S 40°51' E 146°54'4 7.0
2017-Aug-25 06:00S 40°50' E 146°59'4 7.5
2017-Aug-25 05:30S 40°49' E 147°03'4 7.4
2017-Aug-25 05:00S 40°48' E 147°08'4 7.7
2017-Aug-25 04:30S 40°46' E 147°13'4 7.9
2017-Aug-25 04:00S 40°45' E 147°18'4 8.2
2017-Aug-25 03:30S 40°44' E 147°23'4 8.1
2017-Aug-25 03:00S 40°43' E 147°28'4 8.1
2017-Aug-25 02:30S 40°42' E 147°33'611.2
2017-Aug-25 02:00S 40°40' E 147°40'1412.4
2017-Aug-25 00:50S 40°35' E 147°58'12112.0
2017-Aug-24 14:49S 42°34' E 148°22'513.5
2017-Aug-24 14:28S 42°39' E 148°21'713.7
2017-Aug-24 13:59S 42°45' E 148°18'613.5
2017-Aug-24 13:30S 42°51' E 148°16'815.3
2017-Aug-24 13:00S 42°59' E 148°13'816.0
2017-Aug-24 12:31S 43°07' E 148°10'816.1
2017-Aug-24 12:00S 43°15' E 148°07'613.3
2017-Aug-24 11:30S 43°18' E 147°60'  
2017-Aug-21 02:39S 33°50' E 151°26'414.5
2017-Aug-21 02:23S 33°46' E 151°28'614.5
2017-Aug-21 02:00S 33°41' E 151°30'714.0
2017-Aug-21 01:28S 33°34' E 151°32'714.0
2017-Aug-21 01:00S 33°28' E 151°35'714.3
2017-Aug-21 00:30S 33°21' E 151°37'2215.2
2017-Aug-20 23:02S 33°01' E 151°49'015.4
2017-Aug-20 23:00S 33°00' E 151°49'511.2
2017-Aug-20 22:31S 32°55' E 151°49'  
2017-Aug-18 08:48S 32°54' E 151°46'0 0.0
2017-Aug-18 08:24S 32°54' E 151°46'0 0.0
2017-Aug-18 07:48S 32°54' E 151°46'0 0.0
2017-Aug-18 07:30S 32°54' E 151°46'0 0.0
2017-Aug-18 05:48S 32°54' E 151°46'0 0.0
2017-Aug-18 05:24S 32°54' E 151°46'0 0.0
2017-Aug-18 05:00S 32°54' E 151°46'0 0.0
2017-Aug-18 04:30S 32°54' E 151°46'0 0.0
2017-Aug-18 03:51S 32°54' E 151°46'0 0.0
2017-Aug-18 03:30S 32°54' E 151°46'0 0.0
2017-Aug-18 03:00S 32°54' E 151°46'0 0.0
2017-Aug-18 02:24S 32°54' E 151°46'0 0.0
2017-Aug-18 01:54S 32°54' E 151°46'0 0.0
2017-Aug-18 01:24S 32°54' E 151°46'0 0.0
2017-Aug-18 00:24S 32°54' E 151°46'0 0.0
2017-Aug-17 23:36S 32°54' E 151°46'0 0.1
2017-Aug-17 23:30S 32°54' E 151°46'0 0.0
2017-Aug-17 23:00S 32°54' E 151°46'0 0.0
2017-Aug-17 21:06S 32°54' E 151°46'0 0.0
2017-Aug-17 20:45S 32°54' E 151°46'0 0.0
2017-Aug-17 20:30S 32°54' E 151°46'0 0.0
2017-Aug-17 19:54S 32°54' E 151°46'0 0.0
2017-Aug-17 19:30S 32°54' E 151°46'0 0.0
2017-Aug-17 19:00S 32°54' E 151°46'0 0.0
2017-Aug-17 18:30S 32°54' E 151°46'0 0.0
2017-Aug-17 18:00S 32°54' E 151°46'0 0.0
2017-Aug-17 17:30S 32°54' E 151°46'0 0.0
2017-Aug-17 17:00S 32°54' E 151°46'0 0.0
2017-Aug-17 15:30S 32°54' E 151°46'0 0.0
2017-Aug-17 15:00S 32°54' E 151°46'0 0.0
2017-Aug-17 14:12S 32°54' E 151°46'0 0.0
2017-Aug-17 14:00S 32°54' E 151°46'0 0.0
2017-Aug-17 13:15S 32°54' E 151°46'0 0.0
2017-Aug-17 13:00S 32°54' E 151°46'0 0.0
2017-Aug-17 12:30S 32°54' E 151°46'0 0.0
2017-Aug-17 11:48S 32°54' E 151°46'0 0.0
2017-Aug-17 11:30S 32°54' E 151°46'0 0.0
2017-Aug-17 11:00S 32°54' E 151°46'0 0.0
2017-Aug-17 06:00S 32°54' E 151°46'0 0.0
2017-Aug-17 05:30S 32°54' E 151°46'0 0.0
2017-Aug-17 05:00S 32°54' E 151°46'0 0.0
2017-Aug-17 04:30S 32°54' E 151°46'0 0.0
2017-Aug-17 04:00S 32°54' E 151°46'0 0.0
2017-Aug-17 03:18S 32°54' E 151°46'0 0.0
2017-Aug-17 03:00S 32°54' E 151°46'0 0.0
2017-Aug-17 02:30S 32°54' E 151°46'0 0.0
2017-Aug-17 01:54S 32°54' E 151°46'0 0.0
2017-Aug-17 01:30S 32°54' E 151°46'0 0.0
2017-Aug-17 01:00S 32°54' E 151°46'0 0.0
2017-Aug-17 00:30S 32°54' E 151°46'0 0.0
2017-Aug-17 00:00S 32°54' E 151°46'0 0.0
2017-Aug-16 23:30S 32°54' E 151°46'0 0.0
2017-Aug-16 23:00S 32°54' E 151°46'0 0.0
2017-Aug-16 22:21S 32°54' E 151°46'0 0.0
2017-Aug-16 22:00S 32°54' E 151°46'0 0.0
2017-Aug-16 21:30S 32°54' E 151°46'0 0.0
2017-Aug-16 21:00S 32°54' E 151°46'0 0.0
2017-Aug-16 20:30S 32°54' E 151°46'0 0.0
2017-Aug-16 20:00S 32°54' E 151°46'0 0.0
2017-Aug-16 19:27S 32°54' E 151°46'0 0.0
2017-Aug-16 19:00S 32°54' E 151°46'0 0.0
2017-Aug-16 18:24S 32°54' E 151°46'0 0.0
2017-Aug-16 17:57S 32°54' E 151°46'0 0.0
2017-Aug-16 17:30S 32°54' E 151°46'0 0.0
2017-Aug-16 17:00S 32°54' E 151°46'0 0.0
2017-Aug-16 16:30S 32°54' E 151°46'0 0.0
2017-Aug-16 16:00S 32°54' E 151°46'0 0.0
2017-Aug-16 15:30S 32°54' E 151°46'0 0.0
2017-Aug-16 15:00S 32°54' E 151°46'0 0.0
2017-Aug-16 14:30S 32°54' E 151°46'0 0.0
2017-Aug-16 13:57S 32°54' E 151°46'0 0.0
2017-Aug-16 13:18S 32°54' E 151°46'0 0.0
2017-Aug-16 13:00S 32°54' E 151°46'0 0.0
2017-Aug-16 12:30S 32°54' E 151°46'0 0.0
2017-Aug-16 12:00S 32°54' E 151°46'0 0.0
2017-Aug-16 11:12S 32°54' E 151°46'0 0.0
2017-Aug-16 11:00S 32°54' E 151°46'0 0.0
2017-Aug-16 10:30S 32°54' E 151°46'  
Track history (hours):
 
Tides and Currents Weather Stations Pressure Air Temp Water Temp Dewpoint Dewpoint Depression Visibility Wind Speed Wind Dir Waves Ship Positions

Thorco Royal

Last reported at 2017-Aug-26 07:39 UTC. Time now 2017-Sep-19 17:19 UTC.
Position S 40°44' E 146°03'.
Warning: this ship's position is 24 days out of date.

Length 162 m; draft 6.4 m.

Type: Ship. MMSI: 477902400.

Date/timePositionNaut miles runAvg speedWind from/ knotsBaromVisibWave heightAir tempDewpointWater temp
2017-Aug-26 07:39S 40°44' E 146°03'211.8
2017-Aug-26 07:29S 40°45' E 146°05'612.0
2017-Aug-26 06:59S 40°48' E 146°12'611.9
2017-Aug-26 06:30S 40°51' E 146°18'611.8
2017-Aug-26 06:00S 40°54' E 146°25'611.6
2017-Aug-26 05:30S 40°55' E 146°33'510.3
2017-Aug-26 05:00S 40°57' E 146°39'1 1.1
2017-Aug-26 04:30S 40°56' E 146°39'1 1.1
2017-Aug-26 04:00S 40°56' E 146°38'1 1.7
2017-Aug-26 03:30S 40°56' E 146°37'1 1.6
2017-Aug-26 03:01S 40°57' E 146°36'1 1.1
2017-Aug-26 02:30S 40°57' E 146°36'1 1.9
2017-Aug-26 02:00S 40°56' E 146°35'1 1.5
2017-Aug-26 01:30S 40°56' E 146°36'0 0.4
2017-Aug-26 01:00S 40°57' E 146°36'1 1.2
2017-Aug-26 00:31S 40°56' E 146°36'1 2.1
2017-Aug-26 00:00S 40°55' E 146°37'0 0.6
2017-Aug-25 23:31S 40°55' E 146°37'1 2.1
2017-Aug-25 23:01S 40°56' E 146°37'0 0.4
2017-Aug-25 22:30S 40°56' E 146°37'0 0.2
2017-Aug-25 22:00S 40°56' E 146°37'1 1.8
2017-Aug-25 21:30S 40°57' E 146°37'1 1.8
2017-Aug-25 21:00S 40°57' E 146°36'1 1.6
2017-Aug-25 20:30S 40°58' E 146°35'0 0.3
2017-Aug-25 20:01S 40°58' E 146°35'1 1.1
2017-Aug-25 19:30S 40°58' E 146°35'1 1.3
2017-Aug-25 19:00S 40°57' E 146°35'1 1.1
2017-Aug-25 18:30S 40°57' E 146°35'0 0.2
2017-Aug-25 18:00S 40°56' E 146°35'0 0.2
2017-Aug-25 17:30S 40°56' E 146°35'0 0.5
2017-Aug-25 17:01S 40°56' E 146°35'0 0.6
2017-Aug-25 16:31S 40°56' E 146°35'0 0.5
2017-Aug-25 16:00S 40°56' E 146°36'0 0.3
2017-Aug-25 15:30S 40°56' E 146°36'0 0.5
2017-Aug-25 15:00S 40°56' E 146°36'1 1.1
2017-Aug-25 14:01S 40°56' E 146°34'0 0.3
2017-Aug-25 13:30S 40°56' E 146°34'1 1.0
2017-Aug-25 13:00S 40°57' E 146°34'0 0.2
2017-Aug-25 12:30S 40°57' E 146°34'0 0.6
2017-Aug-25 12:01S 40°57' E 146°34'1 1.3
2017-Aug-25 11:30S 40°57' E 146°33'0 0.9
2017-Aug-25 11:00S 40°57' E 146°33'1 1.6
2017-Aug-25 10:30S 40°56' E 146°32'1 1.1
2017-Aug-25 10:00S 40°56' E 146°32'1 2.1
2017-Aug-25 09:30S 40°57' E 146°30'2 3.7
2017-Aug-25 09:00S 40°56' E 146°33'4 6.7
2017-Aug-25 08:29S 40°55' E 146°37'3 6.8
2017-Aug-25 08:00S 40°54' E 146°41'3 6.8
2017-Aug-25 07:30S 40°53' E 146°45'3 7.0
2017-Aug-25 07:00S 40°52' E 146°50'4 7.0
2017-Aug-25 06:30S 40°51' E 146°54'4 7.0
2017-Aug-25 06:00S 40°50' E 146°59'4 7.5
2017-Aug-25 05:30S 40°49' E 147°03'4 7.4
2017-Aug-25 05:00S 40°48' E 147°08'4 7.7
2017-Aug-25 04:30S 40°46' E 147°13'4 7.9
2017-Aug-25 04:00S 40°45' E 147°18'4 8.2
2017-Aug-25 03:30S 40°44' E 147°23'4 8.1
2017-Aug-25 03:00S 40°43' E 147°28'4 8.1
2017-Aug-25 02:30S 40°42' E 147°33'611.2
2017-Aug-25 02:00S 40°40' E 147°40'1412.4
2017-Aug-25 00:50S 40°35' E 147°58'12112.0
2017-Aug-24 14:49S 42°34' E 148°22'513.5
2017-Aug-24 14:28S 42°39' E 148°21'713.7
2017-Aug-24 13:59S 42°45' E 148°18'613.5
2017-Aug-24 13:30S 42°51' E 148°16'815.3
2017-Aug-24 13:00S 42°59' E 148°13'816.0
2017-Aug-24 12:31S 43°07' E 148°10'816.1
2017-Aug-24 12:00S 43°15' E 148°07'613.3
2017-Aug-24 11:30S 43°18' E 147°60'  
2017-Aug-21 02:39S 33°50' E 151°26'414.5
2017-Aug-21 02:23S 33°46' E 151°28'614.5
2017-Aug-21 02:00S 33°41' E 151°30'714.0
2017-Aug-21 01:28S 33°34' E 151°32'714.0
2017-Aug-21 01:00S 33°28' E 151°35'714.3
2017-Aug-21 00:30S 33°21' E 151°37'2215.2
2017-Aug-20 23:02S 33°01' E 151°49'015.4
2017-Aug-20 23:00S 33°00' E 151°49'511.2
2017-Aug-20 22:31S 32°55' E 151°49'  
2017-Aug-18 08:48S 32°54' E 151°46'0 0.0
2017-Aug-18 08:24S 32°54' E 151°46'0 0.0
2017-Aug-18 07:48S 32°54' E 151°46'0 0.0
2017-Aug-18 07:30S 32°54' E 151°46'0 0.0
2017-Aug-18 05:48S 32°54' E 151°46'0 0.0
2017-Aug-18 05:24S 32°54' E 151°46'0 0.0
2017-Aug-18 05:00S 32°54' E 151°46'0 0.0
2017-Aug-18 04:30S 32°54' E 151°46'0 0.0
2017-Aug-18 03:51S 32°54' E 151°46'0 0.0
2017-Aug-18 03:30S 32°54' E 151°46'0 0.0
2017-Aug-18 03:00S 32°54' E 151°46'0 0.0
2017-Aug-18 02:24S 32°54' E 151°46'0 0.0
2017-Aug-18 01:54S 32°54' E 151°46'0 0.0
2017-Aug-18 01:24S 32°54' E 151°46'0 0.0
2017-Aug-18 00:24S 32°54' E 151°46'0 0.0
2017-Aug-17 23:36S 32°54' E 151°46'0 0.1
2017-Aug-17 23:30S 32°54' E 151°46'0 0.0
2017-Aug-17 23:00S 32°54' E 151°46'0 0.0
2017-Aug-17 21:06S 32°54' E 151°46'0 0.0
2017-Aug-17 20:45S 32°54' E 151°46'0 0.0
2017-Aug-17 20:30S 32°54' E 151°46'0 0.0
2017-Aug-17 19:54S 32°54' E 151°46'0 0.0
2017-Aug-17 19:30S 32°54' E 151°46'0 0.0
2017-Aug-17 19:00S 32°54' E 151°46'0 0.0
2017-Aug-17 18:30S 32°54' E 151°46'0 0.0
2017-Aug-17 18:00S 32°54' E 151°46'0 0.0
2017-Aug-17 17:30S 32°54' E 151°46'0 0.0
2017-Aug-17 17:00S 32°54' E 151°46'0 0.0
2017-Aug-17 15:30S 32°54' E 151°46'0 0.0
2017-Aug-17 15:00S 32°54' E 151°46'0 0.0
2017-Aug-17 14:12S 32°54' E 151°46'0 0.0
2017-Aug-17 14:00S 32°54' E 151°46'0 0.0
2017-Aug-17 13:15S 32°54' E 151°46'0 0.0
2017-Aug-17 13:00S 32°54' E 151°46'0 0.0
2017-Aug-17 12:30S 32°54' E 151°46'0 0.0
2017-Aug-17 11:48S 32°54' E 151°46'0 0.0
2017-Aug-17 11:30S 32°54' E 151°46'0 0.0
2017-Aug-17 11:00S 32°54' E 151°46'0 0.0
2017-Aug-17 06:00S 32°54' E 151°46'0 0.0
2017-Aug-17 05:30S 32°54' E 151°46'0 0.0
2017-Aug-17 05:00S 32°54' E 151°46'0 0.0
2017-Aug-17 04:30S 32°54' E 151°46'0 0.0
2017-Aug-17 04:00S 32°54' E 151°46'0 0.0
2017-Aug-17 03:18S 32°54' E 151°46'0 0.0
2017-Aug-17 03:00S 32°54' E 151°46'0 0.0
2017-Aug-17 02:30S 32°54' E 151°46'0 0.0
2017-Aug-17 01:54S 32°54' E 151°46'0 0.0
2017-Aug-17 01:30S 32°54' E 151°46'0 0.0
2017-Aug-17 01:00S 32°54' E 151°46'0 0.0
2017-Aug-17 00:30S 32°54' E 151°46'0 0.0
2017-Aug-17 00:00S 32°54' E 151°46'0 0.0
2017-Aug-16 23:30S 32°54' E 151°46'0 0.0
2017-Aug-16 23:00S 32°54' E 151°46'0 0.0
2017-Aug-16 22:21S 32°54' E 151°46'0 0.0
2017-Aug-16 22:00S 32°54' E 151°46'0 0.0
2017-Aug-16 21:30S 32°54' E 151°46'0 0.0
2017-Aug-16 21:00S 32°54' E 151°46'0 0.0
2017-Aug-16 20:30S 32°54' E 151°46'0 0.0
2017-Aug-16 20:00S 32°54' E 151°46'0 0.0
2017-Aug-16 19:27S 32°54' E 151°46'0 0.0
2017-Aug-16 19:00S 32°54' E 151°46'0 0.0
2017-Aug-16 18:24S 32°54' E 151°46'0 0.0
2017-Aug-16 17:57S 32°54' E 151°46'0 0.0
2017-Aug-16 17:30S 32°54' E 151°46'0 0.0
2017-Aug-16 17:00S 32°54' E 151°46'0 0.0
2017-Aug-16 16:30S 32°54' E 151°46'0 0.0
2017-Aug-16 16:00S 32°54' E 151°46'0 0.0
2017-Aug-16 15:30S 32°54' E 151°46'0 0.0
2017-Aug-16 15:00S 32°54' E 151°46'0 0.0
2017-Aug-16 14:30S 32°54' E 151°46'0 0.0
2017-Aug-16 13:57S 32°54' E 151°46'0 0.0
2017-Aug-16 13:18S 32°54' E 151°46'0 0.0
2017-Aug-16 13:00S 32°54' E 151°46'0 0.0
2017-Aug-16 12:30S 32°54' E 151°46'0 0.0
2017-Aug-16 12:00S 32°54' E 151°46'0 0.0
2017-Aug-16 11:12S 32°54' E 151°46'0 0.0
2017-Aug-16 11:00S 32°54' E 151°46'0 0.0
2017-Aug-16 10:30S 32°54' E 151°46'  

Dump ship's entire track history